Ana Sayfa
METAR-TAF:

METAR-TAF

Havaalanları :

Rabat, Fas

Enlem: 34-03N, Boylam: 006-46W, yükseklik: 84 m

Güncel hava durumu gözlemi

Rapor saat 02:00 UTC de 39 dakika önce yapıldı.
Rüzgar batı/güneybatıdan 10 kt
Sıcaklık 20°C
Nem 88%
Basınç 1020 hPa
Görüş mesafesi: 8000 m
1300 ft yükseklikte parçalı bulutlu
10000 ft yükseklikte parçalı çok bulutlu
hafif yağmur

METAR: GMME 230200Z 25010KT 8000 -RA SCT013 BKN100 20/18 Q1020 NOSIG

Saat: 03:39 (02:39 UTC)

Tahmin

Rapor saat 23:00 UTC de 3 saat ve 39 dakika önce yapıldı.
Ayın 23'si saat 00 UTC'den ayın 24'si saat 06 UTC'ye kadar geçerli Tahmin
Rüzgar kuzey/kuzeybatıdan 8 kt
Görüş mesafesi: 8000 m
Olasılık 30% :
Geçici
ayın 23'si saat 00 UTC'den ayın 23'si saat 09 UTC'ye kadar
1300 ft yükseklikte parçalı bulutlu
9000 ft yükseklikte parçalı çok bulutlu

TAF: GMME 222300Z 2300/2406 34008KT 8000 NSC PROB30 TEMPO 2300/2309 SCT013 BKN090

4.000'den fazla havaalanı için hava durumu gözlemleri ve tahminleri (METAR ve TAF raporları).

Kullanılabilir istasyonlar harita üzerinde sarı ve kırmızı noktalarla gösterilir.

İstasyonun adını görmek için fareyi noktanın üzerinde gezdirin.

Sonrasında hava gözlem ve tahminlerini görmek için tıklayın.

Haritayı değiştirmek için: yaklaştırmak için siyah artı işaretli yeşil düğmeye ve uzaklaştırmak için de eksi işaretli düğmeye hızla tıklayın; bitişik haritalar için yeşil okları kullanın.


METAR-TAF: